Time;durP1;ratioP1;P1;durP2;ratioP2;P2;SDS_P1;SDS_P2;PMS_P1;PMS_P2;Temp;Humidity;BMP_temperature;BMP_pressure;BME280_temperature;BME280_humidity;BME280_pressure;Samples;Min_cycle;Max_cycle;Signal;HPM_P1;HPM_P2
2022/05/30 00:07:51;;;;;;;5.30;2.05;;;10.20;99.90;;;;;;6711716;88;20190;-79
2022/05/30 00:17:56;;;;;;;4.97;2.17;;;10.30;99.90;;;;;;6715524;88;20194;-80
2022/05/30 00:38:58;;;;;;;4.70;2.12;;;10.30;99.90;;;;;;6701159;88;20210;-77
2022/05/30 00:49:02;;;;;;;4.05;2.20;;;10.30;99.90;;;;;;6693218;88;20213;-78
2022/05/30 00:59:04;;;;;;;5.78;2.47;;;10.30;99.90;;;;;;6687968;88;20226;-78
2022/05/30 01:09:12;;;;;;;5.43;2.50;;;10.30;99.90;;;;;;6692549;88;20653;-78
2022/05/30 01:19:51;;;;;;;4.93;2.58;;;10.30;99.90;;;;;;6695124;88;20188;-77
2022/05/30 01:30:01;;;;;;;5.72;2.60;;;10.20;99.90;;;;;;6688252;88;20254;-78
2022/05/30 01:40:02;;;;;;;5.97;2.58;;;10.20;99.90;;;;;;6687776;88;20167;-77
2022/05/30 01:50:04;;;;;;;8.68;2.90;;;10.10;99.90;;;;;;6681784;88;20439;-77
2022/05/30 02:00:10;;;;;;;6.18;2.60;;;10.00;99.90;;;;;;6679432;88;20318;-77
2022/05/30 02:10:11;;;;;;;6.43;2.58;;;9.90;99.90;;;;;;6686462;88;20309;-78
2022/05/30 02:20:12;;;;;;;4.87;2.20;;;9.90;99.90;;;;;;6685952;88;20324;-78
2022/05/30 02:30:12;;;;;;;5.20;2.25;;;9.80;99.90;;;;;;6680219;88;21013;-78
2022/05/30 02:40:13;;;;;;;4.87;2.50;;;9.70;99.90;;;;;;6680324;88;20183;-78
2022/05/30 02:50:13;;;;;;;4.85;2.65;;;9.50;99.90;;;;;;6686097;89;20188;-79
2022/05/30 03:00:14;;;;;;;4.20;2.60;;;9.60;99.90;;;;;;6685842;88;20197;-79
2022/05/30 03:10:15;;;;;;;8.93;2.87;;;9.60;99.90;;;;;;6682283;89;20199;-78
2022/05/30 03:20:15;;;;;;;5.10;2.33;;;9.50;99.90;;;;;;6678787;88;20195;-78
2022/05/30 03:30:16;;;;;;;6.37;2.80;;;9.30;99.90;;;;;;6686056;88;20666;-77
2022/05/30 03:40:16;;;;;;;6.78;2.83;;;9.00;99.90;;;;;;6680651;88;20322;-77
2022/05/30 03:50:24;;;;;;;7.32;2.90;;;8.90;99.90;;;;;;6680767;88;20280;-79
2022/05/30 04:00:25;;;;;;;7.10;3.70;;;8.80;99.90;;;;;;6685910;88;20222;-78
2022/05/30 04:10:26;;;;;;;6.90;3.30;;;8.70;99.90;;;;;;6695693;88;20174;-79
2022/05/30 04:20:27;;;;;;;7.82;3.78;;;8.80;99.90;;;;;;6685190;88;20671;-79
2022/05/30 04:30:27;;;;;;;12.07;4.78;;;9.00;99.90;;;;;;6688211;88;20258;-79
2022/05/30 04:40:28;;;;;;;8.32;4.37;;;9.20;99.90;;;;;;6697172;88;20322;-79
2022/05/30 04:50:28;;;;;;;8.15;5.25;;;9.20;99.90;;;;;;6687016;88;20186;-78
2022/05/30 05:00:29;;;;;;;10.00;5.60;;;9.00;99.90;;;;;;6684311;88;20249;-78
2022/05/30 05:10:41;;;;;;;9.38;5.50;;;9.20;99.90;;;;;;6686820;88;20180;-78
2022/05/30 05:20:42;;;;;;;10.52;5.07;;;9.30;99.90;;;;;;6679437;88;20200;-76
2022/05/30 05:30:43;;;;;;;11.20;4.30;;;9.60;99.90;;;;;;6678749;88;20673;-77
2022/05/30 05:40:45;;;;;;;11.32;4.57;;;9.80;99.90;;;;;;6682523;88;20178;-78
2022/05/30 05:50:45;;;;;;;7.70;4.00;;;10.00;99.90;;;;;;6681861;88;20201;-78
2022/05/30 06:00:46;;;;;;;8.23;3.60;;;10.40;99.90;;;;;;6681104;88;20195;-79
2022/05/30 06:31:19;;;;;;;10.18;3.45;;;11.20;99.90;;;;;;6718116;88;20225;-80
2022/05/30 06:41:23;;;;;;;8.95;3.80;;;11.50;99.90;;;;;;6698132;88;20495;-78
2022/05/30 06:51:26;;;;;;;8.70;4.25;;;11.90;99.90;;;;;;6709084;88;20320;-78
2022/05/30 07:01:31;;;;;;;10.88;4.90;;;11.90;99.90;;;;;;6712383;88;20189;-79
2022/05/30 07:11:32;;;;;;;8.93;4.03;;;11.70;99.90;;;;;;6723122;88;20226;-79
2022/05/30 07:21:32;;;;;;;14.82;4.90;;;12.10;99.90;;;;;;6730157;88;20202;-79
2022/05/30 07:31:33;;;;;;;9.95;4.37;;;12.00;99.90;;;;;;6726139;88;20215;-79
2022/05/30 07:41:38;;;;;;;10.90;4.80;;;12.20;99.90;;;;;;6726165;88;20393;-79
2022/05/30 07:51:39;;;;;;;11.73;4.60;;;12.30;99.90;;;;;;6727587;88;20307;-79
2022/05/30 08:01:39;;;;;;;13.00;5.25;;;12.40;99.90;;;;;;6725771;88;20182;-79
2022/05/30 08:11:40;;;;;;;13.35;7.20;;;12.20;99.90;;;;;;6723928;88;20185;-79
2022/05/30 08:21:40;;;;;;;15.85;8.20;;;12.30;99.90;;;;;;6728368;88;20202;-78
2022/05/30 08:31:41;;;;;;;15.90;8.98;;;12.80;99.90;;;;;;6728531;88;20593;-78
2022/05/30 08:41:47;;;;;;;13.45;7.10;;;12.70;99.90;;;;;;6727832;88;20254;-79
2022/05/30 08:52:19;;;;;;;12.48;6.65;;;12.70;99.90;;;;;;6727443;88;20597;-79
2022/05/30 09:02:26;;;;;;;10.85;5.87;;;13.50;99.90;;;;;;6709869;88;20208;-79
2022/05/30 09:12:36;;;;;;;10.57;5.55;;;13.90;99.90;;;;;;6709822;88;20197;-79
2022/05/30 09:22:38;;;;;;;9.35;4.80;;;13.90;99.90;;;;;;6709354;88;20310;-80
2022/05/30 09:32:53;;;;;;;11.93;4.78;;;14.20;99.90;;;;;;6710071;88;20738;-79
2022/05/30 09:42:55;;;;;;;11.23;4.57;;;14.60;99.90;;;;;;6709368;88;20694;-79
2022/05/30 09:52:56;;;;;;;9.20;4.90;;;14.60;99.90;;;;;;6708050;88;21029;-79
2022/05/30 10:03:08;;;;;;;5.30;2.53;;;15.10;99.90;;;;;;6705847;88;20207;-79
2022/05/30 10:13:10;;;;;;;8.50;2.90;;;15.40;99.90;;;;;;6708650;88;20246;-80
2022/05/30 10:34:15;;;;;;;6.10;2.55;;;16.10;99.90;;;;;;6709663;88;20209;-80
2022/05/30 10:44:32;;;;;;;5.07;2.28;;;16.60;99.90;;;;;;6688837;88;20207;-79
2022/05/30 10:55:01;;;;;;;3.92;2.00;;;18.50;98.70;;;;;;6690533;88;20226;-79
2022/05/30 11:05:11;;;;;;;4.62;2.53;;;18.70;95.20;;;;;;6706128;88;20214;-79
2022/05/30 11:15:22;;;;;;;4.28;2.22;;;18.20;95.30;;;;;;6708909;88;20281;-79
2022/05/30 11:25:38;;;;;;;4.95;2.37;;;18.50;94.20;;;;;;6708063;88;20193;-79
2022/05/30 11:35:57;;;;;;;5.80;2.10;;;18.80;92.60;;;;;;6709261;88;20230;-79
2022/05/30 11:46:09;;;;;;;5.03;1.80;;;19.00;91.60;;;;;;6710859;88;20329;-80
2022/05/30 11:56:34;;;;;;;5.43;2.45;;;19.30;92.10;;;;;;6717140;88;20198;-80
2022/05/30 12:06:42;;;;;;;3.83;2.72;;;20.40;90.60;;;;;;6711624;88;20203;-80
2022/05/30 12:17:10;;;;;;;3.87;2.53;;;20.20;82.90;;;;;;6712090;88;20257;-79
2022/05/30 12:27:34;;;;;;;8.02;3.08;;;19.70;84.00;;;;;;6718085;88;20621;-81
2022/05/30 12:37:47;;;;;;;5.93;2.75;;;19.20;84.50;;;;;;6727206;88;20350;-80
2022/05/30 12:47:54;;;;;;;9.40;3.20;;;19.20;86.20;;;;;;6728545;88;20197;-80
2022/05/30 12:57:54;;;;;;;4.22;2.80;;;20.00;85.70;;;;;;6728301;88;20666;-80
2022/05/30 13:07:55;;;;;;;7.35;3.25;;;21.80;81.90;;;;;;6730644;88;20215;-80
2022/05/30 13:18:04;;;;;;;6.30;3.05;;;20.60;80.50;;;;;;6727958;88;20198;-80
2022/05/30 13:28:15;;;;;;;6.22;3.30;;;20.30;81.50;;;;;;6725092;88;20189;-81
2022/05/30 13:38:16;;;;;;;6.30;3.60;;;20.20;81.40;;;;;;6712211;88;20281;-79
2022/05/30 13:48:17;;;;;;;5.10;3.60;;;20.90;81.20;;;;;;6726527;88;20178;-80
2022/05/30 13:58:18;;;;;;;9.68;4.20;;;22.00;77.60;;;;;;6731209;88;20556;-80
2022/05/30 14:08:35;;;;;;;6.20;4.10;;;20.70;78.50;;;;;;6726114;88;20201;-81
2022/05/30 14:18:54;;;;;;;10.70;3.90;;;20.30;79.50;;;;;;6723170;88;20198;-80
2022/05/30 14:29:01;;;;;;;6.57;3.55;;;21.40;77.10;;;;;;6719540;88;20227;-79
2022/05/30 14:39:20;;;;;;;6.68;3.55;;;22.50;77.10;;;;;;6727740;88;20311;-80
2022/05/30 14:49:28;;;;;;;6.47;3.50;;;22.70;74.00;;;;;;6721005;88;20222;-79
2022/05/30 14:59:36;;;;;;;5.82;3.40;;;22.80;72.70;;;;;;6728563;88;20246;-79
2022/05/30 15:09:44;;;;;;;9.40;3.35;;;22.40;71.50;;;;;;6724324;88;20304;-80
2022/05/30 15:19:44;;;;;;;5.53;3.12;;;22.10;71.30;;;;;;6721876;88;20683;-80
2022/05/30 15:29:46;;;;;;;5.95;3.50;;;22.00;71.60;;;;;;6729333;88;20330;-80
2022/05/30 15:39:46;;;;;;;6.57;2.90;;;21.30;72.80;;;;;;6728357;88;20256;-80
2022/05/30 15:49:47;;;;;;;6.20;2.87;;;22.00;71.00;;;;;;6723354;88;20721;-80
2022/05/30 15:59:53;;;;;;;6.18;2.72;;;22.60;69.20;;;;;;6704783;88;20333;-80
2022/05/30 16:09:59;;;;;;;3.67;2.30;;;22.50;68.80;;;;;;6707244;88;20191;-81
2022/05/30 16:20:00;;;;;;;4.15;2.72;;;22.50;68.40;;;;;;6707355;88;20226;-80
2022/05/30 16:30:01;;;;;;;8.15;3.12;;;21.50;69.70;;;;;;6724796;88;21009;-81
2022/05/30 16:40:03;;;;;;;4.30;2.90;;;20.60;71.30;;;;;;6733906;88;20217;-77
2022/05/30 16:50:04;;;;;;;6.72;2.90;;;20.30;70.50;;;;;;6713826;88;20906;-78
2022/05/30 17:00:09;;;;;;;7.43;3.00;;;19.80;71.60;;;;;;6715842;88;20231;-79
2022/05/30 17:10:09;;;;;;;7.73;3.80;;;19.40;72.70;;;;;;6714584;88;20232;-77
2022/05/30 17:20:16;;;;;;;4.47;2.60;;;19.50;72.00;;;;;;6715241;88;20515;-77
2022/05/30 17:30:17;;;;;;;6.90;2.90;;;20.10;72.10;;;;;;6711036;88;20376;-74
2022/05/30 17:40:17;;;;;;;4.80;2.85;;;19.70;71.30;;;;;;6714081;88;20305;-76
2022/05/30 17:50:24;;;;;;;4.43;2.70;;;19.30;72.30;;;;;;6710336;88;22506;-76
2022/05/30 18:00:26;;;;;;;4.57;2.78;;;19.00;72.70;;;;;;6720515;88;20154;-80
2022/05/30 18:10:43;;;;;;;5.50;2.80;;;18.70;73.60;;;;;;6726483;88;20219;-81
2022/05/30 18:20:44;;;;;;;7.80;2.90;;;18.20;74.40;;;;;;6722616;88;20189;-79
2022/05/30 18:31:05;;;;;;;6.87;3.10;;;18.10;76.30;;;;;;6726091;88;20233;-81
2022/05/30 18:41:11;;;;;;;6.93;3.22;;;17.60;76.40;;;;;;6719122;88;20306;-80
2022/05/30 18:51:12;;;;;;;6.72;3.12;;;17.10;78.70;;;;;;6724563;88;20181;-79
2022/05/30 19:01:13;;;;;;;4.80;2.95;;;16.90;79.00;;;;;;6719266;88;20219;-78
2022/05/30 19:11:16;;;;;;;7.17;3.53;;;16.40;80.70;;;;;;6724322;88;20609;-80
2022/05/30 19:21:21;;;;;;;8.45;3.80;;;16.20;82.80;;;;;;6726765;88;20529;-80
2022/05/30 19:31:24;;;;;;;;;;;15.80;84.70;;;;;;6731638;88;20591;-79
2022/05/30 19:41:25;;;;;;;6.03;3.85;;;15.60;85.30;;;;;;6724997;88;20627;-80
2022/05/30 19:51:25;;;;;;;7.40;4.10;;;15.20;86.90;;;;;;6721796;88;20284;-80
2022/05/30 20:01:27;;;;;;;9.05;4.07;;;14.90;89.00;;;;;;6725288;88;20204;-79
2022/05/30 20:11:35;;;;;;;7.20;4.18;;;14.80;91.50;;;;;;6706900;88;20315;-80
2022/05/30 20:21:37;;;;;;;7.53;4.00;;;14.70;92.10;;;;;;6710797;88;20320;-79
2022/05/30 20:31:38;;;;;;;7.65;4.60;;;14.30;93.50;;;;;;6711013;88;20194;-79
2022/05/30 20:51:58;;;;;;;8.93;4.28;;;13.80;97.90;;;;;;6710365;88;20186;-76
2022/05/30 21:02:01;;;;;;;11.45;7.10;;;13.50;99.90;;;;;;6713143;88;20200;-77
2022/05/30 21:12:02;;;;;;;7.30;4.85;;;13.30;99.90;;;;;;6721176;88;20233;-77
2022/05/30 21:22:06;;;;;;;7.60;4.60;;;12.90;99.90;;;;;;6729145;88;20222;-77
2022/05/30 21:32:18;;;;;;;7.03;4.03;;;12.80;99.90;;;;;;6717331;88;20218;-77
2022/05/30 21:42:18;;;;;;;6.15;4.28;;;13.00;99.90;;;;;;6717351;88;20189;-77
2022/05/30 21:52:19;;;;;;;9.10;4.50;;;12.90;99.90;;;;;;6717409;88;20189;-77
2022/05/30 22:02:20;;;;;;;8.18;5.00;;;12.70;99.90;;;;;;6717326;88;20204;-77
2022/05/30 22:12:21;;;;;;;6.57;4.45;;;12.50;99.90;;;;;;6721708;88;20716;-78
2022/05/30 22:22:21;;;;;;;7.90;4.57;;;12.50;99.90;;;;;;6723123;88;20224;-78
2022/05/30 22:32:22;;;;;;;8.10;4.90;;;12.50;99.90;;;;;;6716664;88;20221;-77
2022/05/30 22:42:22;;;;;;;8.57;5.18;;;12.20;99.90;;;;;;6717335;88;21111;-77
2022/05/30 22:52:23;;;;;;;9.73;5.80;;;12.00;99.90;;;;;;6715822;88;20189;-78
2022/05/30 23:02:24;;;;;;;7.15;4.82;;;11.70;99.90;;;;;;6715261;88;20202;-77
2022/05/30 23:12:24;;;;;;;6.50;4.68;;;11.90;99.90;;;;;;6716960;88;21013;-77
2022/05/30 23:22:26;;;;;;;6.80;4.65;;;11.50;99.90;;;;;;6715874;88;20636;-78
2022/05/30 23:32:27;;;;;;;8.05;4.68;;;11.50;99.90;;;;;;6716398;88;20312;-77
2022/05/30 23:52:47;;;;;;;9.15;6.03;;;11.50;99.90;;;;;;6718153;88;20275;-78
